Time;durP1;ratioP1;P1;durP2;ratioP2;P2;SDS_P1;SDS_P2;PMS_P1;PMS_P2;Temp;Humidity;BMP_temperature;BMP_pressure;BME280_temperature;BME280_humidity;BME280_pressure;Samples;Min_cycle;Max_cycle;Signal;HPM_P1;HPM_P2
2022/12/13 00:04:43;;;;;;;;;;;;;;;;;;10505408;28;20302;-71
2022/12/13 00:09:45;;;;;;;;;;;;;;;;;;10506713;28;19925;-71
2022/12/13 00:14:47;;;;;;;;;;;;;;;;;;10505652;28;19928;-72
2022/12/13 00:19:49;;;;;;;;;;;;;;;;;;10505843;28;20000;-72
2022/12/13 00:24:51;;;;;;;;;;;;;;;;;;10505279;28;19924;-72
2022/12/13 00:29:53;;;;;;;;;;;;;;;;;;10505350;28;19924;-72
2022/12/13 00:34:55;;;;;;;;;;;;;;;;;;10505318;28;20421;-72
2022/12/13 00:39:57;;;;;;;;;;;;;;;;;;10505203;28;19932;-71
2022/12/13 00:44:59;;;;;;;;;;;;;;;;;;10504520;28;19978;-71
2022/12/13 00:50:01;;;;;;;;;;;;;;;;;;10503787;28;20003;-71
2022/12/13 00:55:03;;;;;;;;;;;;;;;;;;10505061;28;19925;-72
2022/12/13 01:00:05;;;;;;;;;;;;;;;;;;10504152;28;19925;-72
2022/12/13 01:05:08;;;;;;;;;;;;;;;;;;10503603;28;19933;-71
2022/12/13 01:10:10;;;;;;;;;;;;;;;;;;10502768;28;19928;-72
2022/12/13 01:15:12;;;;;;;;;;;;;;;;;;10504179;28;19924;-71
2022/12/13 01:20:14;;;;;;;;;;;;;;;;;;10504641;28;19955;-71
2022/12/13 01:25:16;;;;;;;;;;;;;;;;;;10502307;28;19929;-71
2022/12/13 01:30:18;;;;;;;;;;;;;;;;;;10503041;28;19935;-70
2022/12/13 01:35:20;;;;;;;;;;;;;;;;;;10502113;28;19974;-72
2022/12/13 01:40:22;;;;;;;;;;;;;;;;;;10502612;28;19980;-72
2022/12/13 01:45:27;;;;;;;;;;;;;;;;;;10501584;28;20377;-71
2022/12/13 01:50:29;;;;;;;;;;;;;;;;;;10502272;28;19925;-71
2022/12/13 01:55:31;;;;;;;;;;;;;;;;;;10502181;28;19928;-71
2022/12/13 02:00:33;;;;;;;;;;;;;;;;;;10501373;28;19928;-71
2022/12/13 02:05:35;;;;;;;;;;;;;;;;;;10501484;28;19931;-71
2022/12/13 02:10:37;;;;;;;;;;;;;;;;;;10501450;28;19928;-71
2022/12/13 02:15:39;;;;;;;;;;;;;;;;;;10501899;28;19978;-72
2022/12/13 02:20:41;;;;;;;;;;;;;;;;;;10499750;28;19924;-72
2022/12/13 02:25:44;;;;;;;;;;;;;;;;;;10500846;28;20329;-71
2022/12/13 02:30:46;;;;;;;;;;;;;;;;;;10501215;28;20003;-71
2022/12/13 02:35:48;;;;;;;;;;;;;;;;;;10500651;28;19933;-71
2022/12/13 02:40:50;;;;;;;;;;;;;;;;;;10500881;28;19924;-71
2022/12/13 02:45:52;;;;;;;;;;;;;;;;;;10500030;28;19924;-71
2022/12/13 02:50:54;;;;;;;;;;;;;;;;;;10506797;22;19925;-62
2022/12/13 02:55:56;;;;;;;;;;;;;;;;;;10498906;28;20363;-61
2022/12/13 03:00:58;;;;;;;;;;;;;;;;;;10498912;28;19932;-61
2022/12/13 03:11:21;;;;;;;;;;;;;;;;;;10498930;28;19925;-61
2022/12/13 03:16:24;;;;;;;;;;;;;;;;;;10499062;28;19924;-61
2022/12/13 03:21:26;;;;;;;;;;;;;;;;;;10480388;28;19947;-61
2022/12/13 03:26:28;;;;;;;;;;;;;;;;;;10498795;28;19925;-61
2022/12/13 03:31:30;;;;;;;;;;;;;;;;;;10497031;28;19925;-61
2022/12/13 03:36:33;;;;;;;;;;;;;;;;;;10499157;28;19932;-61
2022/12/13 03:41:35;;;;;;;;;;;;;;;;;;10498373;28;19925;-61
2022/12/13 03:46:37;;;;;;;;;;;;;;;;;;10497783;28;19970;-61
2022/12/13 03:51:39;;;;;;;;;;;;;;;;;;10498062;28;19964;-62
2022/12/13 03:56:41;;;;;;;;;;;;;;;;;;10498084;28;19924;-61
2022/12/13 04:01:43;;;;;;;;;;;;;;;;;;10479463;28;19924;-61
2022/12/13 04:06:45;;;;;;;;;;;;;;;;;;10497938;28;20425;-61
2022/12/13 04:17:08;;;;;;;;;;;;;;;;;;10496724;28;20410;-61
2022/12/13 04:22:10;;;;;;;;;;;;;;;;;;10498175;28;19978;-61
2022/12/13 04:27:12;;;;;;;;;;;;;;;;;;10497055;28;19950;-61
2022/12/13 04:32:14;;;;;;;;;;;;;;;;;;10498453;28;19966;-61
2022/12/13 04:37:27;;;;;;;;;;;;;;;;;;10496318;28;20379;-62
2022/12/13 04:42:29;;;;;;;;;;;;;;;;;;10501357;28;19982;-61
2022/12/13 04:47:31;;;;;;;;;;;;;;;;;;10505183;28;19929;-62
2022/12/13 04:52:34;;;;;;;;;;;;;;;;;;10503861;28;20390;-61
2022/12/13 04:57:36;;;;;;;;;;;;;;;;;;10503729;28;20345;-62
2022/12/13 05:02:38;;;;;;;;;;;;;;;;;;10504857;28;19970;-61
2022/12/13 05:07:40;;;;;;;;;;;;;;;;;;10505145;28;19924;-61
2022/12/13 05:12:43;;;;;;;;;;;;;;;;;;10502937;28;19932;-62
2022/12/13 05:17:45;;;;;;;;;;;;;;;;;;10504360;28;19970;-61
2022/12/13 05:22:47;;;;;;;;;;;;;;;;;;10503493;28;19977;-61
2022/12/13 05:27:49;;;;;;;;;;;;;;;;;;10502238;28;19928;-61
2022/12/13 05:32:51;;;;;;;;;;;;;;;;;;10503063;28;19924;-61
2022/12/13 05:37:53;;;;;;;;;;;;;;;;;;10501859;28;19979;-61
2022/12/13 05:42:56;;;;;;;;;;;;;;;;;;10503243;28;19990;-61
2022/12/13 05:48:01;;;;;;;;;;;;;;;;;;10503303;28;19933;-61
2022/12/13 05:53:04;;;;;;;;;;;;;;;;;;10502110;28;20400;-61
2022/12/13 05:58:06;;;;;;;;;;;;;;;;;;10502066;28;19974;-61
2022/12/13 06:03:14;;;;;;;;;;;;;;;;;;10501851;28;19970;-61
2022/12/13 06:08:16;;;;;;;;;;;;;;;;;;10501848;28;19924;-61
2022/12/13 06:13:26;;;;;;;;;;;;;;;;;;10502094;28;19931;-61
2022/12/13 06:18:33;;;;;;;;;;;;;;;;;;10501039;28;19971;-62
2022/12/13 06:23:35;;;;;;;;;;;;;;;;;;10501293;28;19948;-61
2022/12/13 06:28:37;;;;;;;;;;;;;;;;;;10501067;28;19932;-61
2022/12/13 06:33:39;;;;;;;;;;;;;;;;;;10501435;28;19928;-61
2022/12/13 06:38:42;;;;;;;;;;;;;;;;;;10500372;28;19932;-62
2022/12/13 06:43:44;;;;;;;;;;;;;;;;;;10499889;28;19928;-61
2022/12/13 06:48:46;;;;;;;;;;;;;;;;;;10499020;28;20318;-62
2022/12/13 06:53:48;;;;;;;;;;;;;;;;;;10500931;28;19951;-61
2022/12/13 06:58:50;;;;;;;;;;;;;;;;;;10481924;28;20353;-61
2022/12/13 07:03:52;;;;;;;;;;;;;;;;;;10496622;28;19924;-61
2022/12/13 07:08:55;;;;;;;;;;;;;;;;;;10499859;28;19925;-61
2022/12/13 07:13:57;;;;;;;;;;;;;;;;;;10499523;28;19925;-61
2022/12/13 07:18:59;;;;;;;;;;;;;;;;;;10499683;28;19936;-61
2022/12/13 07:24:02;;;;;;;;;;;;;;;;;;10498662;28;19931;-61
2022/12/13 07:29:04;;;;;;;;;;;;;;;;;;10481507;28;19924;-61
2022/12/13 07:34:06;;;;;;;;;;;;;;;;;;10499776;28;19925;-61
2022/12/13 07:39:11;;;;;;;;;;;;;;;;;;10497752;28;19924;-61
2022/12/13 07:44:13;;;;;;;;;;;;;;;;;;10498326;28;19925;-61
2022/12/13 07:49:15;;;;;;;;;;;;;;;;;;10498450;28;19931;-61
2022/12/13 07:54:17;;;;;;;;;;;;;;;;;;10498779;28;19925;-61
2022/12/13 07:59:19;;;;;;;;;;;;;;;;;;10496634;28;19928;-61
2022/12/13 08:04:29;;;;;;;;;;;;;;;;;;10498639;28;19932;-61
2022/12/13 08:09:39;;;;;;;;;;;;;;;;;;10497094;28;20531;-61
2022/12/13 08:14:41;;;;;;;;;;;;;;;;;;10497553;28;19924;-61
2022/12/13 08:19:43;;;;;;;;;;;;;;;;;;10505159;28;19925;-61
2022/12/13 08:24:45;;;;;;;;;;;;;;;;;;10503712;28;19932;-61
2022/12/13 08:29:47;;;;;;;;;;;;;;;;;;10506106;28;20007;-61
2022/12/13 08:34:49;;;;;;;;;;;;;;;;;;10505355;28;19993;-61
2022/12/13 08:39:51;;;;;;;;;;;;;;;;;;10504848;28;19974;-61
2022/12/13 08:44:53;;;;;;;;;;;;;;;;;;10505532;28;19974;-61
2022/12/13 08:49:57;;;;;;;;;;;;;;;;;;10503789;28;20355;-60
2022/12/13 08:55:03;;;;;;;;;;;;;;;;;;10500715;28;19974;-61
2022/12/13 09:00:05;;;;;;;;;;;;;;;;;;10499365;28;19929;-61
2022/12/13 09:05:07;;;;;;;;;;;;;;;;;;10504151;28;19928;-61
2022/12/13 09:10:09;;;;;;;;;;;;;;;;;;10487364;28;19978;-61
2022/12/13 09:15:28;;;;;;;;;;;;;;;;;;10503785;28;20031;-60
2022/12/13 09:20:36;;;;;;;;;;;;;;;;;;10504304;28;19924;-61
2022/12/13 09:25:42;;;;;;;;;;;;;;;;;;10504590;28;19963;-61
2022/12/13 09:30:53;;;;;;;;;;;;;;;;;;10503375;28;19924;-61
2022/12/13 09:35:55;;;;;;;;;;;;;;;;;;10503665;28;19924;-61
2022/12/13 09:40:57;;;;;;;;;;;;;;;;;;10502796;28;20473;-61
2022/12/13 09:46:00;;;;;;;;;;;;;;;;;;10502632;28;20454;-61
2022/12/13 09:51:02;;;;;;;;;;;;;;;;;;10502820;28;19924;-61
2022/12/13 09:56:19;;;;;;;;;;;;;;;;;;10492932;28;19936;-61
2022/12/13 10:01:21;;;;;;;;;;;;;;;;;;10477867;28;19924;-61
2022/12/13 10:06:27;;;;;;;;;;;;;;;;;;10501059;28;20298;-61
2022/12/13 10:11:29;;;;;;;;;;;;;;;;;;10480349;28;20323;-61
2022/12/13 10:16:32;;;;;;;;;;;;;;;;;;10500268;28;20504;-61
2022/12/13 10:21:37;;;;;;;;;;;;;;;;;;10500485;28;19930;-61
2022/12/13 10:26:39;;;;;;;;;;;;;;;;;;10500169;28;20256;-61
2022/12/13 10:31:42;;;;;;;;;;;;;;;;;;10499281;28;19931;-61
2022/12/13 10:36:44;;;;;;;;;;;;;;;;;;10500258;28;19931;-61
2022/12/13 10:41:46;;;;;;;;;;;;;;;;;;10497720;28;19970;-61
2022/12/13 10:46:48;;;;;;;;;;;;;;;;;;10499668;28;19924;-61
2022/12/13 10:51:52;;;;;;;;;;;;;;;;;;10498564;28;20349;-61
2022/12/13 10:56:58;;;;;;;;;;;;;;;;;;10500131;28;19948;-61
2022/12/13 11:02:02;;;;;;;;;;;;;;;;;;10495124;28;19925;-61
2022/12/13 11:07:04;;;;;;;;;;;;;;;;;;10498185;28;19924;-61
2022/12/13 11:12:06;;;;;;;;;;;;;;;;;;10499111;28;19947;-61
2022/12/13 11:17:09;;;;;;;;;;;;;;;;;;10499783;28;19931;-61
2022/12/13 11:22:11;;;;;;;;;;;;;;;;;;10498948;28;20325;-61
2022/12/13 11:27:13;;;;;;;;;;;;;;;;;;10499489;28;19924;-61
2022/12/13 11:32:15;;;;;;;;;;;;;;;;;;10498778;28;19947;-61
2022/12/13 11:37:23;;;;;;;;;;;;;;;;;;10499248;28;19924;-61
2022/12/13 11:42:25;;;;;;;;;;;;;;;;;;10499085;28;19999;-61
2022/12/13 11:47:27;;;;;;;;;;;;;;;;;;10497539;28;19928;-62
2022/12/13 11:52:30;;;;;;;;;;;;;;;;;;10480834;28;19974;-61
2022/12/13 11:57:32;;;;;;;;;;;;;;;;;;10498163;28;20334;-61
2022/12/13 12:02:34;;;;;;;;;;;;;;;;;;10497110;28;19978;-61
2022/12/13 12:07:36;;;;;;;;;;;;;;;;;;10498820;28;19982;-61
2022/12/13 12:12:38;;;;;;;;;;;;;;;;;;10498509;28;19928;-61
2022/12/13 12:17:41;;;;;;;;;;;;;;;;;;10478758;28;20394;-61
2022/12/13 12:22:43;;;;;;;;;;;;;;;;;;10492843;28;20007;-61
2022/12/13 12:27:45;;;;;;;;;;;;;;;;;;10528139;28;19924;-61
2022/12/13 12:32:47;;;;;;;;;;;;;;;;;;10497483;28;19928;-61
2022/12/13 12:37:49;;;;;;;;;;;;;;;;;;10497345;28;19928;-61
2022/12/13 12:42:52;;;;;;;;;;;;;;;;;;10494822;28;19925;-61
2022/12/13 12:48:15;;;;;;;;;;;;;;;;;;10496913;28;19925;-61
2022/12/13 12:53:37;;;;;;;;;;;;;;;;;;10496971;28;20019;-61
2022/12/13 12:58:39;;;;;;;;;;;;;;;;;;10497507;28;19970;-61
2022/12/13 13:03:41;;;;;;;;;;;;;;;;;;10500554;28;20346;-61
2022/12/13 13:08:43;;;;;;;;;;;;;;;;;;10504804;28;19951;-61
2022/12/13 13:13:48;;;;;;;;;;;;;;;;;;10504503;28;19924;-61
2022/12/13 13:18:50;;;;;;;;;;;;;;;;;;10503716;28;19924;-60
2022/12/13 13:23:52;;;;;;;;;;;;;;;;;;10502151;28;19931;-61
2022/12/13 13:28:55;;;;;;;;;;;;;;;;;;10501592;28;19931;-61
2022/12/13 13:33:57;;;;;;;;;;;;;;;;;;10502367;28;19932;-61
2022/12/13 13:38:59;;;;;;;;;;;;;;;;;;10488734;28;19932;-61
2022/12/13 13:44:02;;;;;;;;;;;;;;;;;;10501392;28;20326;-61
2022/12/13 13:49:04;;;;;;;;;;;;;;;;;;10502739;28;19924;-61
2022/12/13 13:54:06;;;;;;;;;;;;;;;;;;10502172;28;19929;-61
2022/12/13 13:59:08;;;;;;;;;;;;;;;;;;10502861;28;19929;-61
2022/12/13 14:04:10;;;;;;;;;;;;;;;;;;10501999;28;19970;-61
2022/12/13 14:09:13;;;;;;;;;;;;;;;;;;10497051;28;19928;-61
2022/12/13 14:14:15;;;;;;;;;;;;;;;;;;10501436;28;20375;-61
2022/12/13 14:19:23;;;;;;;;;;;;;;;;;;10500987;28;20087;-61
2022/12/13 14:24:25;;;;;;;;;;;;;;;;;;10501072;28;19924;-61
2022/12/13 14:29:27;;;;;;;;;;;;;;;;;;10511961;28;19927;-61
2022/12/13 14:34:29;;;;;;;;;;;;;;;;;;10543159;28;19932;-61
2022/12/13 14:39:33;;;;;;;;;;;;;;;;;;10521717;28;19924;-61
2022/12/13 14:44:35;;;;;;;;;;;;;;;;;;10500855;28;19930;-61
2022/12/13 14:49:37;;;;;;;;;;;;;;;;;;10500552;28;19936;-61
2022/12/13 14:54:39;;;;;;;;;;;;;;;;;;10500533;28;19928;-61
2022/12/13 14:59:41;;;;;;;;;;;;;;;;;;10500381;28;19924;-61
2022/12/13 15:04:49;;;;;;;;;;;;;;;;;;10485920;22;19925;-61
2022/12/13 15:09:51;;;;;;;;;;;;;;;;;;10458108;28;20291;-61
2022/12/13 15:14:53;;;;;;;;;;;;;;;;;;10459067;28;19925;-61
2022/12/13 15:19:55;;;;;;;;;;;;;;;;;;10458006;28;20371;-61
2022/12/13 15:24:57;;;;;;;;;;;;;;;;;;10457731;28;19971;-61
2022/12/13 15:29:59;;;;;;;;;;;;;;;;;;10457887;28;20412;-61
2022/12/13 15:35:01;;;;;;;;;;;;;;;;;;10455447;28;19978;-61
2022/12/13 15:40:03;;;;;;;;;;;;;;;;;;10455914;28;20372;-61
2022/12/13 15:45:05;;;;;;;;;;;;;;;;;;10456028;28;19982;-61
2022/12/13 15:50:08;;;;;;;;;;;;;;;;;;10456718;28;19929;-60
2022/12/13 15:55:10;;;;;;;;;;;;;;;;;;10455894;28;20399;-60
2022/12/13 16:00:12;;;;;;;;;;;;;;;;;;10457229;28;19975;-60
2022/12/13 16:05:14;;;;;;;;;;;;;;;;;;10456280;28;19924;-61
2022/12/13 16:10:16;;;;;;;;;;;;;;;;;;10457120;28;19925;-60
2022/12/13 16:15:18;;;;;;;;;;;;;;;;;;10457047;28;19980;-61
2022/12/13 16:20:29;;;;;;;;;;;;;;;;;;10456332;28;20403;-61
2022/12/13 16:25:31;;;;;;;;;;;;;;;;;;10456200;28;20408;-60
2022/12/13 16:30:33;;;;;;;;;;;;;;;;;;10457224;28;19924;-61
2022/12/13 16:35:35;;;;;;;;;;;;;;;;;;10455972;28;19929;-61
2022/12/13 16:40:37;;;;;;;;;;;;;;;;;;10462979;28;20326;-61
2022/12/13 16:45:40;;;;;;;;;;;;;;;;;;10464330;28;19971;-61
2022/12/13 16:50:43;;;;;;;;;;;;;;;;;;10464090;28;19925;-61
2022/12/13 16:55:45;;;;;;;;;;;;;;;;;;10463433;28;19992;-61
2022/12/13 17:01:00;;;;;;;;;;;;;;;;;;10463927;28;19932;-61
2022/12/13 17:06:03;;;;;;;;;;;;;;;;;;10462943;28;19925;-61
2022/12/13 17:11:05;;;;;;;;;;;;;;;;;;10463390;28;19925;-61
2022/12/13 17:16:07;;;;;;;;;;;;;;;;;;10463187;28;19924;-61
2022/12/13 17:21:10;;;;;;;;;;;;;;;;;;10462558;28;19940;-61
2022/12/13 17:26:12;;;;;;;;;;;;;;;;;;10462776;28;19925;-61
2022/12/13 17:31:14;;;;;;;;;;;;;;;;;;10462599;28;19925;-61
2022/12/13 17:36:17;;;;;;;;;;;;;;;;;;10462415;28;19925;-61
2022/12/13 17:41:19;;;;;;;;;;;;;;;;;;10462162;28;19975;-61
2022/12/13 17:46:21;;;;;;;;;;;;;;;;;;10461022;28;19929;-61
2022/12/13 17:51:23;;;;;;;;;;;;;;;;;;10461448;28;20020;-61
2022/12/13 17:56:25;;;;;;;;;;;;;;;;;;10461579;28;19929;-61
2022/12/13 18:01:28;;;;;;;;;;;;;;;;;;10460829;28;19937;-61
2022/12/13 18:06:30;;;;;;;;;;;;;;;;;;10461038;28;19971;-61
2022/12/13 18:11:33;;;;;;;;;;;;;;;;;;10460960;28;19928;-61
2022/12/13 18:16:36;;;;;;;;;;;;;;;;;;10460289;28;19925;-61
2022/12/13 18:21:39;;;;;;;;;;;;;;;;;;10460092;28;19925;-61
2022/12/13 18:26:41;;;;;;;;;;;;;;;;;;10459967;28;19928;-61
2022/12/13 18:31:43;;;;;;;;;;;;;;;;;;10460234;28;19925;-61
2022/12/13 18:36:45;;;;;;;;;;;;;;;;;;10459415;28;19928;-61
2022/12/13 18:41:48;;;;;;;;;;;;;;;;;;10459880;28;19979;-61
2022/12/13 18:46:50;;;;;;;;;;;;;;;;;;10459110;28;20287;-61
2022/12/13 18:51:52;;;;;;;;;;;;;;;;;;10458991;28;19925;-61
2022/12/13 18:56:54;;;;;;;;;;;;;;;;;;10458610;28;20253;-61
2022/12/13 19:01:56;;;;;;;;;;;;;;;;;;10457691;28;20383;-61
2022/12/13 19:06:59;;;;;;;;;;;;;;;;;;10458128;28;19932;-61
2022/12/13 19:12:01;;;;;;;;;;;;;;;;;;10457441;28;19929;-61
2022/12/13 19:17:03;;;;;;;;;;;;;;;;;;10462919;28;20333;-61
2022/12/13 19:22:05;;;;;;;;;;;;;;;;;;10499754;28;19978;-61
2022/12/13 19:27:07;;;;;;;;;;;;;;;;;;10493503;28;19979;-61
2022/12/13 19:32:09;;;;;;;;;;;;;;;;;;10478167;28;19924;-61
2022/12/13 19:37:11;;;;;;;;;;;;;;;;;;10498693;28;19943;-61
2022/12/13 19:42:13;;;;;;;;;;;;;;;;;;10495383;28;19978;-61
2022/12/13 19:47:15;;;;;;;;;;;;;;;;;;10457647;28;19975;-61
2022/12/13 19:52:17;;;;;;;;;;;;;;;;;;10456036;28;19925;-61
2022/12/13 19:57:19;;;;;;;;;;;;;;;;;;10457429;28;19925;-61
2022/12/13 20:02:21;;;;;;;;;;;;;;;;;;10455749;28;19929;-61
2022/12/13 20:07:25;;;;;;;;;;;;;;;;;;10455221;28;20276;-61
2022/12/13 20:12:28;;;;;;;;;;;;;;;;;;10492298;28;19925;-61
2022/12/13 20:17:30;;;;;;;;;;;;;;;;;;10468723;28;19939;-61
2022/12/13 20:22:32;;;;;;;;;;;;;;;;;;10471332;28;19928;-61
2022/12/13 20:27:34;;;;;;;;;;;;;;;;;;10506701;28;19928;-61
2022/12/13 20:32:36;;;;;;;;;;;;;;;;;;10469760;28;20287;-61
2022/12/13 20:37:38;;;;;;;;;;;;;;;;;;10464803;28;19931;-61
2022/12/13 20:42:41;;;;;;;;;;;;;;;;;;10480078;28;19925;-61
2022/12/13 20:47:43;;;;;;;;;;;;;;;;;;10463630;28;19971;-61
2022/12/13 20:52:45;;;;;;;;;;;;;;;;;;10493725;28;19939;-61
2022/12/13 20:57:51;;;;;;;;;;;;;;;;;;10504853;28;19994;-61
2022/12/13 21:02:53;;;;;;;;;;;;;;;;;;10497274;28;20432;-61
2022/12/13 21:13:16;;;;;;;;;;;;;;;;;;10504604;28;20359;-61
2022/12/13 21:18:18;;;;;;;;;;;;;;;;;;10465257;28;20338;-61
2022/12/13 21:23:21;;;;;;;;;;;;;;;;;;10462250;28;20383;-61
2022/12/13 21:28:24;;;;;;;;;;;;;;;;;;10462312;28;19963;-61
2022/12/13 21:33:26;;;;;;;;;;;;;;;;;;10500497;28;19924;-61
2022/12/13 21:38:29;;;;;;;;;;;;;;;;;;10501313;28;20295;-61
2022/12/13 21:43:35;;;;;;;;;;;;;;;;;;10476090;28;19932;-61
2022/12/13 21:48:37;;;;;;;;;;;;;;;;;;10462221;28;20388;-61
2022/12/13 21:53:39;;;;;;;;;;;;;;;;;;10471629;28;20417;-61
2022/12/13 22:04:02;;;;;;;;;;;;;;;;;;10460006;28;20329;-61
2022/12/13 22:09:07;;;;;;;;;;;;;;;;;;10461233;28;19924;-61
2022/12/13 22:14:10;;;;;;;;;;;;;;;;;;10460365;28;20291;-61
2022/12/13 22:19:12;;;;;;;;;;;;;;;;;;10458972;28;19933;-61
2022/12/13 22:24:14;;;;;;;;;;;;;;;;;;10460639;28;19932;-61
2022/12/13 22:29:16;;;;;;;;;;;;;;;;;;10459732;28;19925;-61
2022/12/13 22:34:18;;;;;;;;;;;;;;;;;;10500505;28;19925;-61
2022/12/13 22:39:21;;;;;;;;;;;;;;;;;;10500683;28;20440;-61
2022/12/13 22:44:24;;;;;;;;;;;;;;;;;;10420982;28;20405;-61
2022/12/13 22:49:27;;;;;;;;;;;;;;;;;;10418957;28;19925;-61
2022/12/13 22:54:29;;;;;;;;;;;;;;;;;;10419069;28;19925;-61
2022/12/13 22:59:31;;;;;;;;;;;;;;;;;;10499886;28;20306;-61
2022/12/13 23:04:33;;;;;;;;;;;;;;;;;;10499643;28;20367;-61
2022/12/13 23:09:35;;;;;;;;;;;;;;;;;;10498708;28;19924;-61
2022/12/13 23:14:38;;;;;;;;;;;;;;;;;;10499920;28;19973;-61
2022/12/13 23:19:40;;;;;;;;;;;;;;;;;;10499164;28;19924;-61
2022/12/13 23:24:52;;;;;;;;;;;;;;;;;;10417375;28;19933;-61
2022/12/13 23:29:54;;;;;;;;;;;;;;;;;;10416407;28;19932;-61
2022/12/13 23:34:56;;;;;;;;;;;;;;;;;;10489630;28;19924;-61
2022/12/13 23:39:58;;;;;;;;;;;;;;;;;;10498926;28;19974;-61
2022/12/13 23:45:00;;;;;;;;;;;;;;;;;;10497758;28;19970;-61
2022/12/13 23:50:02;;;;;;;;;;;;;;;;;;10416234;28;19929;-61
2022/12/13 23:55:04;;;;;;;;;;;;;;;;;;10491280;28;20311;-61
